Impacts TAF Board
For situational awareness. Not to be used for flight planning purposes.
IDs:

KPIT - Pittsburgh Intl, PA, US

Issued at 2058 UTC 20 Oct 2018
Updated at 2209 UTC 20 Oct 2018
Potential Impact None Slight Moderate High
Time2151Z 20/23Z 21/00Z 21/01Z 21/02Z 21/03Z 21/04Z 21/05Z 21/06Z 21/07Z 21/08Z 21/09Z 21/10Z 21/11Z>>
Type OBS PRVL PRVL PRVL PRVL PRVL PRVL PRVL PRVL PRVL PRVL PRVL PRVL PRVL
VIS 8 >6 >6 >6 >6 >6 >6 >6 >6 >6 >6 >6 >6 >6
CIG 34 50 50 50 30 30 30 30 15 15 15 15 15 15
Cover BKN BKN BKN BKN OVC OVC OVC OVC OVC OVC OVC OVC OVC OVC
FltCat VFR VFR VFR VFR MVFR MVFR MVFR MVFR MVFR MVFR MVFR MVFR MVFR MVFR
WX -RA -SHRA -SHRA -SHRA -SHRA -SHRA -SHRA -SHRA VCSH VCSH VCSH VCSH VCSH VCSH
WDir 260 270 270 270 300 300 300 300 320 320 320 320 320 320
WSpd 15 15 15 15 15 15 15 15 24 24 24 24 24 24
WGst 21 23 23 23 25 25 25 25 30 30 30 30 30 30
Raw TAF
KPIT 202058Z 2021/2124 27015G23KT P6SM -SHRA BKN050
  FM210200 30015G25KT P6SM -SHRA OVC030
  FM210600 32024G30KT P6SM VCSH OVC015
  FM211200 30011KT P6SM OVC035
  FM211900 29012KT P6SM BKN050


Raw METAR
KPIT 202151Z 26015G21KT 8SM -RA SCT024 BKN034 BKN070 09/05 A2967 RMK AO2 PK WND 31030/2118 LTG DSNT E SLP055 P0003 T00890050
KPIT 202121Z 30019G30KT 8SM RA SCT025 BKN035 OVC070 09/06 A2967 RMK AO2 PK WND 31030/2118 LTG DSNT NE PRESRR P0000 T00940056
KPIT 202051Z 27007KT 9SM -RA SCT030 BKN045 BKN080 13/07 A2964 RMK AO2 RAB1957 SLP047 P0001 60001 T01280067 56021
KPIT 201951Z 25005G15KT 10SM FEW020 SCT035 BKN060 13/04 A2965 RMK AO2 PK WND 24026/1902 SLP049 VCSH SW-W T01330044

METAR Board
Radar Display
Forecast Discussion
For situational awareness. Not to be used for flight planning purposes.